createdAt,value
2019-05-19T00:00:05.613Z,38.92
2019-05-19T00:02:34.308Z,36.35
2019-05-19T00:05:03.687Z,34.13
2019-05-19T00:07:32.368Z,37.13
2019-05-19T00:10:01.114Z,34.75
2019-05-19T00:12:29.769Z,38.42
2019-05-19T00:14:58.381Z,36.88
2019-05-19T00:17:27.065Z,38.42
2019-05-19T00:19:55.770Z,38.02
2019-05-19T00:22:24.552Z,37.83
2019-05-19T00:24:53.274Z,39.20
2019-05-19T00:27:21.894Z,38.58
2019-05-19T00:29:50.600Z,37.93
2019-05-19T00:32:19.356Z,40.70
2019-05-19T00:34:47.985Z,39.08
2019-05-19T00:37:16.605Z,42.20
2019-05-19T00:39:45.238Z,42.60
2019-05-19T00:42:13.842Z,40.73
2019-05-19T00:44:42.570Z,42.90
2019-05-19T00:47:11.346Z,42.62
2019-05-19T00:49:41.668Z,41.13
2019-05-19T00:52:10.349Z,44.70
2019-05-19T00:54:39.065Z,42.27
2019-05-19T00:57:09.971Z,45.80
2019-05-19T00:59:40.110Z,43.92
2019-05-19T01:02:08.879Z,38.83
2019-05-19T01:04:37.557Z,33.33
2019-05-19T01:07:06.276Z,41.20
2019-05-19T01:09:34.955Z,44.27
2019-05-19T01:12:03.727Z,42.48
2019-05-19T01:14:32.489Z,43.25
2019-05-19T01:17:01.145Z,41.92
2019-05-19T01:19:29.758Z,43.45
2019-05-19T01:22:00.891Z,41.15
2019-05-19T01:24:29.520Z,43.83
2019-05-19T01:26:58.202Z,41.90
2019-05-19T01:29:26.844Z,45.30
2019-05-19T01:31:55.699Z,42.15
2019-05-19T01:34:24.332Z,42.38
2019-05-19T01:36:53.014Z,43.30
2019-05-19T01:39:21.771Z,41.35
2019-05-19T01:41:50.356Z,43.70
2019-05-19T01:44:19.081Z,41.55
2019-05-19T01:46:47.884Z,43.90
2019-05-19T01:49:16.499Z,41.40
2019-05-19T01:51:45.143Z,43.68
2019-05-19T01:54:16.637Z,45.03
2019-05-19T01:56:44.181Z,45.12
2019-05-19T01:59:12.839Z,44.08
2019-05-19T02:01:41.541Z,45.90
2019-05-19T02:04:10.179Z,43.33
2019-05-19T02:06:38.819Z,44.42
2019-05-19T02:09:07.786Z,45.15
2019-05-19T02:11:36.489Z,46.00
2019-05-19T02:14:05.394Z,42.27
2019-05-19T02:16:34.108Z,47.65
2019-05-19T02:19:02.845Z,41.55
2019-05-19T02:21:31.600Z,47.20
2019-05-19T02:24:00.251Z,50.75
2019-05-19T02:26:29.219Z,45.95
2019-05-19T02:28:57.850Z,46.00
2019-05-19T02:31:26.550Z,45.00
2019-05-19T02:33:55.179Z,41.92
2019-05-19T02:36:23.798Z,43.35
2019-05-19T02:38:52.505Z,45.60
2019-05-19T02:41:22.587Z,46.48
2019-05-19T02:43:53.345Z,44.35
2019-05-19T02:46:22.806Z,40.95
2019-05-19T02:48:52.646Z,42.27
2019-05-19T02:51:22.615Z,40.28
2019-05-19T02:53:52.064Z,42.23
2019-05-19T02:56:22.143Z,45.43
2019-05-19T02:58:52.824Z,40.90
2019-05-19T03:01:21.464Z,41.80
2019-05-19T03:03:50.142Z,41.40
2019-05-19T03:06:18.802Z,40.75
2019-05-19T03:08:47.463Z,38.25
2019-05-19T03:11:16.145Z,39.50
2019-05-19T03:13:44.898Z,39.65
2019-05-19T03:16:13.653Z,40.73
2019-05-19T03:18:42.289Z,38.10
2019-05-19T03:21:12.134Z,42.33
2019-05-19T03:23:40.973Z,35.70
2019-05-19T03:26:09.599Z,38.35
2019-05-19T03:28:38.307Z,38.40
2019-05-19T03:31:26.849Z,38.90
2019-05-19T03:33:57.167Z,35.55
2019-05-19T03:36:25.782Z,35.85
2019-05-19T03:38:54.395Z,37.17
2019-05-19T03:41:23.034Z,32.45
2019-05-19T03:43:51.647Z,38.15
2019-05-19T03:46:20.352Z,34.55
2019-05-19T03:48:48.966Z,37.63
2019-05-19T03:51:29.973Z,36.55
2019-05-19T03:53:47.959Z,33.63
2019-05-19T03:56:16.591Z,34.65
2019-05-19T03:58:45.231Z,33.98
2019-05-19T04:01:13.940Z,35.45
2019-05-19T04:03:42.765Z,34.13
2019-05-19T04:06:11.443Z,32.45
2019-05-19T04:08:40.183Z,31.52
2019-05-19T04:11:08.987Z,31.82
2019-05-19T04:13:37.721Z,29.07
2019-05-19T04:16:06.563Z,30.40
2019-05-19T04:18:35.176Z,31.40
2019-05-19T04:21:03.990Z,32.50
2019-05-19T04:23:32.680Z,33.30
2019-05-19T04:26:01.449Z,32.08
2019-05-19T04:28:30.073Z,28.57
2019-05-19T04:30:58.790Z,31.55
2019-05-19T04:33:27.406Z,32.73
2019-05-19T04:35:57.481Z,31.97
2019-05-19T04:38:26.463Z,34.20
2019-05-19T04:40:55.081Z,31.85
2019-05-19T04:43:23.889Z,31.48
2019-05-19T04:45:52.504Z,31.15
2019-05-19T04:48:21.204Z,29.00
2019-05-19T04:50:49.849Z,31.05
2019-05-19T04:53:18.485Z,29.95
2019-05-19T04:55:47.165Z,31.00
2019-05-19T04:58:15.818Z,28.55
2019-05-19T05:00:44.503Z,45.60
2019-05-19T05:03:13.141Z,28.17
2019-05-19T05:05:41.854Z,26.62
2019-05-19T05:08:27.781Z,26.82
2019-05-19T05:10:40.936Z,27.80
2019-05-19T05:13:09.546Z,28.73
2019-05-19T05:15:38.250Z,54.50
2019-05-19T05:18:08.747Z,32.10
2019-05-19T05:20:37.611Z,45.95
2019-05-19T05:23:06.289Z,33.92
2019-05-19T05:25:34.901Z,35.33
2019-05-19T05:28:03.680Z,26.02
2019-05-19T05:30:32.323Z,26.33
2019-05-19T05:33:00.959Z,26.30
2019-05-19T05:35:29.598Z,28.02
2019-05-19T05:37:58.309Z,26.35
2019-05-19T05:40:26.917Z,61.65
2019-05-19T05:42:55.647Z,38.38
2019-05-19T05:45:24.405Z,35.68
2019-05-19T05:47:53.153Z,27.60
2019-05-19T05:50:21.835Z,41.58
2019-05-19T05:52:50.625Z,29.67
2019-05-19T05:55:19.382Z,27.17
2019-05-19T05:57:48.007Z,26.55
2019-05-19T06:00:16.876Z,26.87
2019-05-19T06:02:45.784Z,29.67
2019-05-19T06:05:14.535Z,29.98
2019-05-19T06:07:43.143Z,32.25
2019-05-19T06:10:12.309Z,32.17
2019-05-19T06:12:41.000Z,32.10
2019-05-19T06:15:09.965Z,30.17
2019-05-19T06:17:38.800Z,33.05
2019-05-19T06:20:09.077Z,33.45
2019-05-19T06:22:54.519Z,65.72
2019-05-19T06:25:08.500Z,69.12
2019-05-19T06:27:37.201Z,87.42
2019-05-19T06:30:08.690Z,45.67
2019-05-19T06:32:38.730Z,38.25
2019-05-19T06:35:07.909Z,34.65
2019-05-19T06:37:36.616Z,31.68
2019-05-19T06:40:09.674Z,33.00
2019-05-19T06:42:38.453Z,31.82
2019-05-19T06:45:07.498Z,32.93
2019-05-19T06:47:36.157Z,32.95
2019-05-19T06:50:07.205Z,31.97
2019-05-19T06:52:35.875Z,29.72
2019-05-19T06:55:05.544Z,60.00
2019-05-19T06:57:34.263Z,44.00
2019-05-19T07:00:04.341Z,34.80
2019-05-19T07:02:33.051Z,43.40
2019-05-19T07:05:01.660Z,32.67
2019-05-19T07:07:30.363Z,31.15
2019-05-19T07:09:59.060Z,32.23
2019-05-19T07:12:27.772Z,29.48
2019-05-19T07:14:56.481Z,30.00
2019-05-19T07:17:25.165Z,32.15
2019-05-19T07:19:54.029Z,31.35
2019-05-19T07:22:22.581Z,29.15
2019-05-19T07:24:51.291Z,29.32
2019-05-19T07:27:19.965Z,30.35
2019-05-19T07:29:48.651Z,32.25
2019-05-19T07:32:17.365Z,29.87
2019-05-19T07:34:46.073Z,28.80
2019-05-19T07:37:14.705Z,27.93
2019-05-19T07:39:43.330Z,30.32
2019-05-19T07:42:12.104Z,31.15
2019-05-19T07:44:40.837Z,30.40
2019-05-19T07:47:09.491Z,30.35
2019-05-19T07:49:38.116Z,31.57
2019-05-19T07:52:06.917Z,28.85
2019-05-19T07:54:35.606Z,29.05
2019-05-19T07:57:04.374Z,30.05
2019-05-19T07:59:33.119Z,26.82
2019-05-19T08:02:01.734Z,27.50
2019-05-19T08:04:30.431Z,28.42
2019-05-19T08:06:59.156Z,29.00
2019-05-19T08:09:27.837Z,28.27
2019-05-19T08:11:56.613Z,27.22
2019-05-19T08:14:25.225Z,29.25
2019-05-19T08:16:53.972Z,27.98
2019-05-19T08:19:22.682Z,25.20
2019-05-19T08:21:51.500Z,25.52
2019-05-19T08:24:20.170Z,26.60
2019-05-19T08:26:48.861Z,28.35
2019-05-19T08:29:17.479Z,27.42
2019-05-19T08:31:46.199Z,27.93
2019-05-19T08:34:14.989Z,24.18
2019-05-19T08:36:43.657Z,23.40
2019-05-19T08:39:12.427Z,25.52
2019-05-19T08:41:41.063Z,20.95
2019-05-19T08:44:09.866Z,22.25
2019-05-19T08:46:38.507Z,23.90
2019-05-19T08:49:07.187Z,23.40
2019-05-19T08:51:35.969Z,22.85
2019-05-19T08:54:14.309Z,23.95
2019-05-19T08:56:35.013Z,21.27
2019-05-19T08:59:03.648Z,24.80
2019-05-19T09:01:33.349Z,20.95
2019-05-19T09:04:01.955Z,22.48
2019-05-19T09:06:30.568Z,20.00
2019-05-19T09:08:59.262Z,22.70
2019-05-19T09:11:28.152Z,20.40
2019-05-19T09:13:56.906Z,21.65
2019-05-19T09:16:25.642Z,19.20
2019-05-19T09:18:54.328Z,19.80
2019-05-19T09:21:23.006Z,18.57
2019-05-19T09:23:51.736Z,20.72
2019-05-19T09:26:20.351Z,20.88
2019-05-19T09:28:49.011Z,20.27
2019-05-19T09:31:17.726Z,19.62
2019-05-19T09:33:46.380Z,19.52
2019-05-19T09:36:15.017Z,17.52
2019-05-19T09:38:43.701Z,18.17
2019-05-19T09:41:12.497Z,19.07
2019-05-19T09:43:41.174Z,19.65
2019-05-19T09:46:09.812Z,18.92
2019-05-19T09:48:38.508Z,16.82
2019-05-19T09:51:07.144Z,17.85
2019-05-19T09:53:35.830Z,17.40
2019-05-19T09:56:04.589Z,16.60
2019-05-19T09:58:33.292Z,13.20
2019-05-19T10:01:01.934Z,12.93
2019-05-19T10:03:30.855Z,12.13
2019-05-19T10:05:59.573Z,13.38
2019-05-19T10:08:33.239Z,13.48
2019-05-19T10:11:19.853Z,11.57
2019-05-19T10:13:48.475Z,11.22
2019-05-19T10:16:17.108Z,11.35
2019-05-19T10:18:45.810Z,11.33
2019-05-19T10:21:14.497Z,11.93
2019-05-19T10:23:43.204Z,8.10
2019-05-19T10:26:11.889Z,8.15
2019-05-19T10:28:40.529Z,10.53
2019-05-19T10:31:09.178Z,8.30
2019-05-19T10:33:37.795Z,9.58
2019-05-19T10:36:06.541Z,8.83
2019-05-19T10:38:35.246Z,8.68
2019-05-19T10:41:03.925Z,9.20
2019-05-19T10:43:32.601Z,10.48
2019-05-19T10:46:01.234Z,10.25
2019-05-19T10:48:29.933Z,9.83
2019-05-19T10:50:58.600Z,8.65
2019-05-19T10:53:27.369Z,8.70
2019-05-19T10:55:55.996Z,9.00
2019-05-19T10:58:24.713Z,9.75
2019-05-19T11:00:53.304Z,9.83
2019-05-19T11:03:21.982Z,10.38
2019-05-19T11:05:50.617Z,8.75
2019-05-19T11:08:19.358Z,8.80
2019-05-19T11:10:48.070Z,8.98
2019-05-19T11:13:16.787Z,8.13
2019-05-19T11:15:45.518Z,7.75
2019-05-19T11:18:14.154Z,8.43
2019-05-19T11:20:42.834Z,8.78
2019-05-19T11:23:11.547Z,9.48
2019-05-19T11:25:51.000Z,12.33
2019-05-19T11:28:10.597Z,38.50
2019-05-19T11:30:39.216Z,13.48
2019-05-19T11:33:07.931Z,7.28
2019-05-19T11:35:36.538Z,7.62
2019-05-19T11:38:05.546Z,7.58
2019-05-19T11:40:34.158Z,18.77
2019-05-19T11:43:02.942Z,7.37
2019-05-19T11:45:31.683Z,5.65
2019-05-19T11:48:00.291Z,5.22
2019-05-19T11:50:29.003Z,5.78
2019-05-19T11:52:57.639Z,5.60
2019-05-19T11:55:26.377Z,4.78
2019-05-19T11:57:55.065Z,5.08
2019-05-19T12:00:23.736Z,6.37
2019-05-19T12:02:52.449Z,9.93
2019-05-19T12:05:21.141Z,7.28
2019-05-19T12:07:49.757Z,12.73
2019-05-19T12:10:18.628Z,7.30
2019-05-19T12:12:47.262Z,6.92
2019-05-19T12:15:16.209Z,6.45
2019-05-19T12:17:44.974Z,9.23
2019-05-19T12:20:13.729Z,8.08
2019-05-19T12:22:42.435Z,6.67
2019-05-19T12:25:11.114Z,12.18
2019-05-19T12:27:39.930Z,11.63
2019-05-19T12:30:08.909Z,8.05
2019-05-19T12:32:37.516Z,9.05
2019-05-19T12:35:07.495Z,8.23
2019-05-19T12:37:36.161Z,7.58
2019-05-19T12:40:06.240Z,7.80
2019-05-19T12:42:34.856Z,7.53
2019-05-19T12:45:05.026Z,7.78
2019-05-19T12:47:33.634Z,8.78
2019-05-19T12:50:02.817Z,10.38
2019-05-19T12:52:31.710Z,8.60
2019-05-19T12:55:00.570Z,9.65
2019-05-19T12:57:29.420Z,8.83
2019-05-19T12:59:58.195Z,9.25
2019-05-19T13:02:26.807Z,10.78
2019-05-19T13:05:04.810Z,9.48
2019-05-19T13:07:25.838Z,9.70
2019-05-19T13:09:54.564Z,10.15
2019-05-19T13:12:23.340Z,9.08
2019-05-19T13:14:52.019Z,10.60
2019-05-19T13:17:20.631Z,11.68
2019-05-19T13:19:49.302Z,10.43
2019-05-19T13:22:18.198Z,11.03
2019-05-19T13:24:46.826Z,9.85
2019-05-19T13:27:15.511Z,9.03
2019-05-19T13:29:44.328Z,9.63
2019-05-19T13:32:13.043Z,11.73
2019-05-19T13:34:41.718Z,9.63
2019-05-19T13:37:10.472Z,10.55
2019-05-19T13:39:39.202Z,10.23
2019-05-19T13:42:07.896Z,9.93
2019-05-19T13:44:36.660Z,9.08
2019-05-19T13:47:05.338Z,10.25
2019-05-19T13:49:33.978Z,12.68
2019-05-19T13:52:02.670Z,12.55
2019-05-19T13:54:31.304Z,11.00
2019-05-19T13:57:11.894Z,11.12
2019-05-19T13:59:31.036Z,10.53
2019-05-19T14:02:00.344Z,10.53
2019-05-19T14:04:28.970Z,11.85
2019-05-19T14:06:57.702Z,11.43
2019-05-19T14:09:26.524Z,11.88
2019-05-19T14:11:55.209Z,13.00
2019-05-19T14:14:23.864Z,12.10
2019-05-19T14:16:52.566Z,10.00
2019-05-19T14:19:21.218Z,11.03
2019-05-19T14:21:49.491Z,4.33
2019-05-19T14:24:17.793Z,3.65
2019-05-19T14:26:46.421Z,2.92
2019-05-19T14:29:15.032Z,3.08
2019-05-19T14:31:44.056Z,4.53
2019-05-19T14:34:12.851Z,4.40
2019-05-19T14:36:41.683Z,4.53
2019-05-19T14:39:10.372Z,5.65
2019-05-19T14:41:40.625Z,6.12
2019-05-19T14:44:09.323Z,5.20
2019-05-19T14:46:38.074Z,5.92
2019-05-19T14:49:06.770Z,5.50
2019-05-19T14:51:35.508Z,5.10
2019-05-19T14:54:04.323Z,5.60
2019-05-19T14:56:33.802Z,6.47
2019-05-19T14:59:02.574Z,5.28
2019-05-19T15:01:31.364Z,6.20
2019-05-19T15:04:00.170Z,5.70
2019-05-19T15:06:29.092Z,6.85
2019-05-19T15:08:57.912Z,6.90
2019-05-19T15:11:32.573Z,7.15
2019-05-19T15:14:01.506Z,7.17
2019-05-19T15:16:30.377Z,7.40
2019-05-19T15:18:59.223Z,7.37
2019-05-19T15:21:27.934Z,6.60
2019-05-19T15:23:56.818Z,5.12
2019-05-19T15:26:25.539Z,5.95
2019-05-19T15:28:54.225Z,7.20
2019-05-19T15:31:25.970Z,6.80
2019-05-19T15:33:54.588Z,7.08
2019-05-19T15:36:23.298Z,6.85
2019-05-19T15:39:05.774Z,6.65
2019-05-19T15:41:34.583Z,6.90
2019-05-19T15:44:04.264Z,6.70
2019-05-19T15:46:32.898Z,6.70
2019-05-19T15:49:01.639Z,6.17
2019-05-19T15:51:37.167Z,7.00
2019-05-19T15:54:00.703Z,6.90
2019-05-19T15:56:29.350Z,8.20
2019-05-19T15:58:58.161Z,8.03
2019-05-19T16:01:26.814Z,8.10
2019-05-19T16:03:55.625Z,7.83
2019-05-19T16:06:24.279Z,8.58
2019-05-19T16:08:52.938Z,8.38
2019-05-19T16:11:21.694Z,9.13
2019-05-19T16:13:50.330Z,8.30
2019-05-19T16:16:18.945Z,8.60
2019-05-19T16:18:47.598Z,8.33
2019-05-19T16:21:16.221Z,7.58
2019-05-19T16:23:44.914Z,7.97
2019-05-19T16:26:13.710Z,8.60
2019-05-19T16:28:42.337Z,7.92
2019-05-19T16:31:11.014Z,8.05
2019-05-19T16:33:39.605Z,7.62
2019-05-19T16:36:09.446Z,7.72
2019-05-19T16:38:38.066Z,8.53
2019-05-19T16:41:06.745Z,7.58
2019-05-19T16:43:35.439Z,6.67
2019-05-19T16:46:04.110Z,5.78
2019-05-19T16:48:33.799Z,6.30
2019-05-19T16:51:02.472Z,5.60
2019-05-19T16:53:31.159Z,5.97
2019-05-19T16:55:59.833Z,4.80
2019-05-19T16:58:28.531Z,4.72
2019-05-19T17:00:58.529Z,5.30
2019-05-19T17:03:27.225Z,4.97
2019-05-19T17:05:56.010Z,5.28
2019-05-19T17:08:24.656Z,4.35
2019-05-19T17:10:53.286Z,4.50
2019-05-19T17:13:21.895Z,4.67
2019-05-19T17:15:50.592Z,5.20
2019-05-19T17:18:19.324Z,5.75
2019-05-19T17:20:47.961Z,5.35
2019-05-19T17:23:16.636Z,5.67
2019-05-19T17:25:45.425Z,5.60
2019-05-19T17:28:14.165Z,6.08
2019-05-19T17:30:42.890Z,5.47
2019-05-19T17:33:11.584Z,6.37
2019-05-19T17:35:40.348Z,6.37
2019-05-19T17:38:09.070Z,6.17
2019-05-19T17:40:37.729Z,6.70
2019-05-19T17:43:06.339Z,6.28
2019-05-19T17:45:35.037Z,6.35
2019-05-19T17:48:09.902Z,6.10
2019-05-19T17:50:35.132Z,6.50
2019-05-19T17:53:04.495Z,6.20
2019-05-19T17:55:34.792Z,6.33
2019-05-19T17:58:03.671Z,6.72
2019-05-19T18:00:40.928Z,5.87
2019-05-19T18:03:10.460Z,6.65
2019-05-19T18:05:39.210Z,5.80
2019-05-19T18:08:08.079Z,6.33
2019-05-19T18:10:36.750Z,5.72
2019-05-19T18:13:05.527Z,5.65
2019-05-19T18:15:34.532Z,5.80
2019-05-19T18:18:03.228Z,5.65
2019-05-19T18:20:31.839Z,5.75
2019-05-19T18:23:00.465Z,5.92
2019-05-19T18:25:29.204Z,5.95
2019-05-19T18:27:57.847Z,5.62
2019-05-19T18:30:26.527Z,5.60
2019-05-19T18:32:55.225Z,5.95
2019-05-19T18:35:23.933Z,6.35
2019-05-19T18:37:52.610Z,6.20
2019-05-19T18:40:21.480Z,5.05
2019-05-19T18:42:50.108Z,5.80
2019-05-19T18:45:18.898Z,5.78
2019-05-19T18:47:47.493Z,5.50
2019-05-19T18:50:16.369Z,5.42
2019-05-19T18:52:44.989Z,5.85
2019-05-19T18:55:13.732Z,5.28
2019-05-19T18:57:42.444Z,5.42
2019-05-19T19:00:11.334Z,5.53
2019-05-19T19:02:40.504Z,5.83
2019-05-19T19:05:09.190Z,6.05
2019-05-19T19:10:17.548Z,6.70
2019-05-19T19:12:46.239Z,7.45
2019-05-19T19:15:15.140Z,6.15
2019-05-19T19:17:43.888Z,6.65
2019-05-19T19:20:12.760Z,6.75
2019-05-19T19:22:41.526Z,8.10
2019-05-19T19:25:10.229Z,6.72
2019-05-19T19:27:38.903Z,7.25
2019-05-19T19:30:08.760Z,7.42
2019-05-19T19:32:37.479Z,7.10
2019-05-19T19:35:07.359Z,8.28
2019-05-19T19:37:36.037Z,8.70
2019-05-19T19:40:07.434Z,8.15
2019-05-19T19:42:36.140Z,7.75
2019-05-19T19:45:05.989Z,8.88
2019-05-19T19:47:34.710Z,8.05
2019-05-19T19:50:04.963Z,8.45
2019-05-19T19:52:33.651Z,9.10
2019-05-19T19:55:02.283Z,9.15
2019-05-19T19:57:30.890Z,8.85
2019-05-19T19:59:59.520Z,9.90
2019-05-19T20:02:28.239Z,9.38
2019-05-19T20:04:56.802Z,8.35
2019-05-19T20:07:25.497Z,9.00
2019-05-19T20:09:54.200Z,9.23
2019-05-19T20:12:22.906Z,8.48
2019-05-19T20:14:51.615Z,8.13
2019-05-19T20:17:20.276Z,8.70
2019-05-19T20:19:48.912Z,7.75
2019-05-19T20:22:17.686Z,8.45
2019-05-19T20:24:46.320Z,7.78
2019-05-19T20:27:15.060Z,8.05
2019-05-19T20:29:43.901Z,7.83
2019-05-19T20:32:12.584Z,7.72
2019-05-19T20:34:41.302Z,12.75
2019-05-19T20:37:10.162Z,14.25
2019-05-19T20:39:38.851Z,12.18
2019-05-19T20:42:07.598Z,11.40
2019-05-19T20:44:36.242Z,12.55
2019-05-19T20:47:04.938Z,12.35
2019-05-19T20:49:33.619Z,13.58
2019-05-19T20:52:02.331Z,12.33
2019-05-19T20:54:30.945Z,12.37
2019-05-19T20:56:59.630Z,12.35
2019-05-19T20:59:28.247Z,11.88
2019-05-19T21:01:56.967Z,12.98
2019-05-19T21:04:25.573Z,12.28
2019-05-19T21:06:54.187Z,10.53
2019-05-19T21:09:22.883Z,12.13
2019-05-19T21:11:51.497Z,11.95
2019-05-19T21:14:20.133Z,12.73
2019-05-19T21:16:48.875Z,10.93
2019-05-19T21:19:17.587Z,11.08
2019-05-19T21:21:46.349Z,12.80
2019-05-19T21:24:14.987Z,10.15
2019-05-19T21:26:43.594Z,11.78
2019-05-19T21:29:12.369Z,14.73
2019-05-19T21:31:40.971Z,16.02
2019-05-19T21:34:09.648Z,15.30
2019-05-19T21:36:38.245Z,14.95
2019-05-19T21:39:06.950Z,13.53
2019-05-19T21:41:35.721Z,12.93
2019-05-19T21:44:04.506Z,12.50
2019-05-19T21:46:33.113Z,13.80
2019-05-19T21:49:01.831Z,12.98
2019-05-19T21:51:30.468Z,11.15
2019-05-19T21:53:59.184Z,10.43
2019-05-19T21:56:27.844Z,9.20
2019-05-19T21:58:56.535Z,8.33
2019-05-19T22:01:25.636Z,9.18
2019-05-19T22:03:54.367Z,10.28
2019-05-19T22:06:24.632Z,9.65
2019-05-19T22:08:53.266Z,9.83
2019-05-19T22:11:21.899Z,10.25
2019-05-19T22:13:50.607Z,10.10
2019-05-19T22:16:19.223Z,11.33
2019-05-19T22:18:47.862Z,12.90
2019-05-19T22:21:16.468Z,12.23
2019-05-19T22:23:45.106Z,13.85
2019-05-19T22:26:13.797Z,13.48
2019-05-19T22:28:42.427Z,13.62
2019-05-19T22:31:11.045Z,13.08
2019-05-19T22:33:39.706Z,12.82
2019-05-19T22:36:08.443Z,15.50
2019-05-19T22:38:37.091Z,15.80
2019-05-19T22:41:05.696Z,14.95
2019-05-19T22:43:34.445Z,16.10
2019-05-19T22:46:03.055Z,15.45
2019-05-19T22:48:31.677Z,16.55
2019-05-19T22:51:00.378Z,15.43
2019-05-19T22:53:29.016Z,15.03
2019-05-19T22:55:57.630Z,15.38
2019-05-19T22:58:26.402Z,16.65
2019-05-19T23:00:56.281Z,16.80
2019-05-19T23:03:25.370Z,16.87
2019-05-19T23:05:54.011Z,19.32
2019-05-19T23:08:22.634Z,17.37
2019-05-19T23:10:51.281Z,17.82
2019-05-19T23:13:19.921Z,17.40
2019-05-19T23:15:48.607Z,18.23
2019-05-19T23:18:17.283Z,17.87
2019-05-19T23:20:45.898Z,18.05
2019-05-19T23:23:14.597Z,17.67
2019-05-19T23:25:43.234Z,16.87
2019-05-19T23:28:11.935Z,16.60
2019-05-19T23:30:40.551Z,16.93
2019-05-19T23:33:09.257Z,16.70
2019-05-19T23:35:37.874Z,18.52
2019-05-19T23:38:06.692Z,17.45
2019-05-19T23:40:35.327Z,15.98
2019-05-19T23:43:03.964Z,15.63
2019-05-19T23:45:32.593Z,15.03
2019-05-19T23:48:01.244Z,14.50
2019-05-19T23:50:30.048Z,14.40
2019-05-19T23:52:58.671Z,14.98
2019-05-19T23:55:27.354Z,15.50
2019-05-19T23:57:55.986Z,14.13
